sensor_id;sensor_type;location;lat;lon;timestamp;temperature;humidity
65036;DHT22;51603;49.300;8.880;2023-02-15T00:00:10;2.10;99.90
65036;DHT22;51603;49.300;8.880;2023-02-15T00:02:36;2.10;99.90
65036;DHT22;51603;49.300;8.880;2023-02-15T00:05:02;2.10;99.90
65036;DHT22;51603;49.300;8.880;2023-02-15T00:07:27;2.10;99.90
65036;DHT22;51603;49.300;8.880;2023-02-15T00:09:53;2.00;99.90
65036;DHT22;51603;49.300;8.880;2023-02-15T00:12:18;2.00;99.90
65036;DHT22;51603;49.300;8.880;2023-02-15T00:14:44;2.00;99.90
65036;DHT22;51603;49.300;8.880;2023-02-15T00:17:09;2.10;99.90
65036;DHT22;51603;49.300;8.880;2023-02-15T00:19:35;2.00;99.90
65036;DHT22;51603;49.300;8.880;2023-02-15T00:22:00;2.00;99.90
65036;DHT22;51603;49.300;8.880;2023-02-15T00:24:26;2.00;99.90
65036;DHT22;51603;49.300;8.880;2023-02-15T00:26:52;2.10;99.90
65036;DHT22;51603;49.300;8.880;2023-02-15T00:29:18;2.10;99.90
65036;DHT22;51603;49.300;8.880;2023-02-15T00:31:45;2.10;99.90
65036;DHT22;51603;49.300;8.880;2023-02-15T00:34:13;2.10;99.90
65036;DHT22;51603;49.300;8.880;2023-02-15T00:36:39;2.10;99.90
65036;DHT22;51603;49.300;8.880;2023-02-15T00:39:05;2.10;99.90
65036;DHT22;51603;49.300;8.880;2023-02-15T00:41:32;2.10;99.90
65036;DHT22;51603;49.300;8.880;2023-02-15T00:43:58;2.10;99.90
65036;DHT22;51603;49.300;8.880;2023-02-15T00:46:23;2.10;99.90
65036;DHT22;51603;49.300;8.880;2023-02-15T00:48:49;2.10;99.90
65036;DHT22;51603;49.300;8.880;2023-02-15T00:51:15;2.10;99.90
65036;DHT22;51603;49.300;8.880;2023-02-15T00:53:40;2.10;99.90
65036;DHT22;51603;49.300;8.880;2023-02-15T00:56:06;2.10;99.90
65036;DHT22;51603;49.300;8.880;2023-02-15T00:58:32;2.10;99.90
65036;DHT22;51603;49.300;8.880;2023-02-15T01:01:04;2.10;99.90
65036;DHT22;51603;49.300;8.880;2023-02-15T01:03:31;2.00;99.90
65036;DHT22;51603;49.300;8.880;2023-02-15T01:05:56;2.00;99.90
65036;DHT22;51603;49.300;8.880;2023-02-15T01:08:22;2.00;99.90
65036;DHT22;51603;49.300;8.880;2023-02-15T01:10:47;2.00;99.90
65036;DHT22;51603;49.300;8.880;2023-02-15T01:13:14;2.00;99.90
65036;DHT22;51603;49.300;8.880;2023-02-15T01:15:40;2.00;99.90
65036;DHT22;51603;49.300;8.880;2023-02-15T01:18:06;2.00;99.90
65036;DHT22;51603;49.300;8.880;2023-02-15T01:20:35;2.00;99.90
65036;DHT22;51603;49.300;8.880;2023-02-15T01:23:02;2.00;99.90
65036;DHT22;51603;49.300;8.880;2023-02-15T01:25:28;2.00;99.90
65036;DHT22;51603;49.300;8.880;2023-02-15T01:27:53;2.00;99.90
65036;DHT22;51603;49.300;8.880;2023-02-15T01:30:19;2.00;99.90
65036;DHT22;51603;49.300;8.880;2023-02-15T01:32:44;2.00;99.90
65036;DHT22;51603;49.300;8.880;2023-02-15T01:35:11;2.00;99.90
65036;DHT22;51603;49.300;8.880;2023-02-15T01:37:37;2.00;99.90
65036;DHT22;51603;49.300;8.880;2023-02-15T01:40:05;2.00;99.90
65036;DHT22;51603;49.300;8.880;2023-02-15T01:42:31;2.00;99.90
65036;DHT22;51603;49.300;8.880;2023-02-15T01:45:02;2.00;99.90
65036;DHT22;51603;49.300;8.880;2023-02-15T01:48:16;2.00;99.90
65036;DHT22;51603;49.300;8.880;2023-02-15T01:50:39;2.00;99.90
65036;DHT22;51603;49.300;8.880;2023-02-15T01:53:20;2.00;99.90
65036;DHT22;51603;49.300;8.880;2023-02-15T01:58:17;2.00;99.90
65036;DHT22;51603;49.300;8.880;2023-02-15T02:00:43;2.00;99.90
65036;DHT22;51603;49.300;8.880;2023-02-15T02:03:10;2.00;99.90
65036;DHT22;51603;49.300;8.880;2023-02-15T02:05:38;2.00;99.90
65036;DHT22;51603;49.300;8.880;2023-02-15T02:08:04;2.00;99.90
65036;DHT22;51603;49.300;8.880;2023-02-15T02:10:30;2.00;99.90
65036;DHT22;51603;49.300;8.880;2023-02-15T02:12:58;2.00;99.90
65036;DHT22;51603;49.300;8.880;2023-02-15T02:15:58;2.00;99.90
65036;DHT22;51603;49.300;8.880;2023-02-15T02:22:07;2.00;99.90
65036;DHT22;51603;49.300;8.880;2023-02-15T02:27:32;2.00;99.90
65036;DHT22;51603;49.300;8.880;2023-02-15T02:30:32;2.00;99.90
65036;DHT22;51603;49.300;8.880;2023-02-15T02:38:44;1.90;99.90
65036;DHT22;51603;49.300;8.880;2023-02-15T02:46:29;1.90;99.90
65036;DHT22;51603;49.300;8.880;2023-02-15T02:48:55;1.90;99.90
65036;DHT22;51603;49.300;8.880;2023-02-15T02:51:22;1.90;99.90
65036;DHT22;51603;49.300;8.880;2023-02-15T02:53:53;1.90;99.90
65036;DHT22;51603;49.300;8.880;2023-02-15T02:56:28;1.90;99.90
65036;DHT22;51603;49.300;8.880;2023-02-15T02:59:01;1.90;99.90
65036;DHT22;51603;49.300;8.880;2023-02-15T03:01:44;1.90;99.90
65036;DHT22;51603;49.300;8.880;2023-02-15T03:04:21;1.90;99.90
65036;DHT22;51603;49.300;8.880;2023-02-15T03:06:55;1.90;99.90
65036;DHT22;51603;49.300;8.880;2023-02-15T03:09:34;1.90;99.90
65036;DHT22;51603;49.300;8.880;2023-02-15T03:12:32;1.90;99.90
65036;DHT22;51603;49.300;8.880;2023-02-15T03:15:08;1.90;99.90
65036;DHT22;51603;49.300;8.880;2023-02-15T03:17:37;1.90;99.90
65036;DHT22;51603;49.300;8.880;2023-02-15T03:20:15;1.90;99.90
65036;DHT22;51603;49.300;8.880;2023-02-15T03:22:50;1.90;99.90
65036;DHT22;51603;49.300;8.880;2023-02-15T03:25:24;1.90;99.90
65036;DHT22;51603;49.300;8.880;2023-02-15T03:27:54;1.90;99.90
65036;DHT22;51603;49.300;8.880;2023-02-15T03:30:21;1.80;99.90
65036;DHT22;51603;49.300;8.880;2023-02-15T03:32:49;1.70;99.90
65036;DHT22;51603;49.300;8.880;2023-02-15T03:35:16;1.70;99.90
65036;DHT22;51603;49.300;8.880;2023-02-15T03:40:48;1.70;99.90
65036;DHT22;51603;49.300;8.880;2023-02-15T03:43:57;1.70;99.90
65036;DHT22;51603;49.300;8.880;2023-02-15T03:48:58;1.70;99.90
65036;DHT22;51603;49.300;8.880;2023-02-15T03:51:30;1.70;99.90
65036;DHT22;51603;49.300;8.880;2023-02-15T03:54:05;1.70;99.90
65036;DHT22;51603;49.300;8.880;2023-02-15T03:56:34;1.70;99.90
65036;DHT22;51603;49.300;8.880;2023-02-15T03:59:00;1.70;99.90
65036;DHT22;51603;49.300;8.880;2023-02-15T04:04:38;1.70;99.90
65036;DHT22;51603;49.300;8.880;2023-02-15T04:07:08;1.60;99.90
65036;DHT22;51603;49.300;8.880;2023-02-15T04:09:34;1.60;99.90
65036;DHT22;51603;49.300;8.880;2023-02-15T04:12:18;1.60;99.90
65036;DHT22;51603;49.300;8.880;2023-02-15T04:14:44;1.60;99.90
65036;DHT22;51603;49.300;8.880;2023-02-15T04:17:28;1.60;99.90
65036;DHT22;51603;49.300;8.880;2023-02-15T04:19:54;1.60;99.90
65036;DHT22;51603;49.300;8.880;2023-02-15T04:22:38;1.60;99.90
65036;DHT22;51603;49.300;8.880;2023-02-15T04:25:22;1.60;99.90
65036;DHT22;51603;49.300;8.880;2023-02-15T04:27:50;1.60;99.90
65036;DHT22;51603;49.300;8.880;2023-02-15T04:30:17;1.60;99.90
65036;DHT22;51603;49.300;8.880;2023-02-15T04:32:44;1.60;99.90
65036;DHT22;51603;49.300;8.880;2023-02-15T04:35:09;1.60;99.90
65036;DHT22;51603;49.300;8.880;2023-02-15T04:37:36;1.60;99.90
65036;DHT22;51603;49.300;8.880;2023-02-15T04:40:03;1.60;99.90
65036;DHT22;51603;49.300;8.880;2023-02-15T04:42:29;1.60;99.90
65036;DHT22;51603;49.300;8.880;2023-02-15T04:44:54;1.50;99.90
65036;DHT22;51603;49.300;8.880;2023-02-15T04:47:20;1.50;99.90
65036;DHT22;51603;49.300;8.880;2023-02-15T04:49:46;1.50;99.90
65036;DHT22;51603;49.300;8.880;2023-02-15T04:52:12;1.50;99.90
65036;DHT22;51603;49.300;8.880;2023-02-15T04:54:37;1.50;99.90
65036;DHT22;51603;49.300;8.880;2023-02-15T04:57:03;1.50;99.90
65036;DHT22;51603;49.300;8.880;2023-02-15T04:59:29;1.50;99.90
65036;DHT22;51603;49.300;8.880;2023-02-15T05:01:55;1.50;99.90
65036;DHT22;51603;49.300;8.880;2023-02-15T05:04:20;1.50;99.90
65036;DHT22;51603;49.300;8.880;2023-02-15T05:06:46;1.40;99.90
65036;DHT22;51603;49.300;8.880;2023-02-15T05:09:12;1.40;99.90
65036;DHT22;51603;49.300;8.880;2023-02-15T05:11:37;1.40;99.90
65036;DHT22;51603;49.300;8.880;2023-02-15T05:14:03;1.40;99.90
65036;DHT22;51603;49.300;8.880;2023-02-15T05:16:29;1.30;99.90
65036;DHT22;51603;49.300;8.880;2023-02-15T05:18:55;1.30;99.90
65036;DHT22;51603;49.300;8.880;2023-02-15T05:21:20;1.30;99.90
65036;DHT22;51603;49.300;8.880;2023-02-15T05:23:46;1.30;99.90
65036;DHT22;51603;49.300;8.880;2023-02-15T05:26:17;1.30;99.90
65036;DHT22;51603;49.300;8.880;2023-02-15T05:29:01;1.30;99.90
65036;DHT22;51603;49.300;8.880;2023-02-15T05:31:26;1.20;99.90
65036;DHT22;51603;49.300;8.880;2023-02-15T05:33:52;1.30;99.90
65036;DHT22;51603;49.300;8.880;2023-02-15T05:36:18;1.30;99.90
65036;DHT22;51603;49.300;8.880;2023-02-15T05:38:43;1.30;99.90
65036;DHT22;51603;49.300;8.880;2023-02-15T05:41:10;1.30;99.90
65036;DHT22;51603;49.300;8.880;2023-02-15T05:43:37;1.30;99.90
65036;DHT22;51603;49.300;8.880;2023-02-15T05:46:03;1.20;99.90
65036;DHT22;51603;49.300;8.880;2023-02-15T05:48:30;1.20;99.90
65036;DHT22;51603;49.300;8.880;2023-02-15T05:50:59;1.10;99.90
65036;DHT22;51603;49.300;8.880;2023-02-15T05:53:26;1.10;99.90
65036;DHT22;51603;49.300;8.880;2023-02-15T05:55:52;1.20;99.90
65036;DHT22;51603;49.300;8.880;2023-02-15T05:58:19;1.20;99.90
65036;DHT22;51603;49.300;8.880;2023-02-15T06:00:45;1.20;99.90
65036;DHT22;51603;49.300;8.880;2023-02-15T06:03:10;1.20;99.90
65036;DHT22;51603;49.300;8.880;2023-02-15T06:05:36;1.20;99.90
65036;DHT22;51603;49.300;8.880;2023-02-15T06:08:01;1.20;99.90
65036;DHT22;51603;49.300;8.880;2023-02-15T06:10:27;1.20;99.90
65036;DHT22;51603;49.300;8.880;2023-02-15T06:12:53;1.20;99.90
65036;DHT22;51603;49.300;8.880;2023-02-15T06:15:18;1.10;99.90
65036;DHT22;51603;49.300;8.880;2023-02-15T06:17:44;1.20;99.90
65036;DHT22;51603;49.300;8.880;2023-02-15T06:20:10;1.10;99.90
65036;DHT22;51603;49.300;8.880;2023-02-15T06:22:35;1.20;99.90
65036;DHT22;51603;49.300;8.880;2023-02-15T06:25:01;1.20;99.90
65036;DHT22;51603;49.300;8.880;2023-02-15T06:27:27;1.10;99.90
65036;DHT22;51603;49.300;8.880;2023-02-15T06:29:52;1.10;99.90
65036;DHT22;51603;49.300;8.880;2023-02-15T06:32:18;1.00;99.90
65036;DHT22;51603;49.300;8.880;2023-02-15T06:34:43;1.00;99.90
65036;DHT22;51603;49.300;8.880;2023-02-15T06:37:09;1.00;99.90
65036;DHT22;51603;49.300;8.880;2023-02-15T06:39:34;1.10;99.90
65036;DHT22;51603;49.300;8.880;2023-02-15T06:42:00;1.00;99.90
65036;DHT22;51603;49.300;8.880;2023-02-15T06:44:25;1.00;99.90
65036;DHT22;51603;49.300;8.880;2023-02-15T06:46:51;1.00;99.90
65036;DHT22;51603;49.300;8.880;2023-02-15T06:49:16;1.00;99.90
65036;DHT22;51603;49.300;8.880;2023-02-15T06:51:42;1.00;99.90
65036;DHT22;51603;49.300;8.880;2023-02-15T06:54:07;0.90;99.90
65036;DHT22;51603;49.300;8.880;2023-02-15T06:56:33;0.90;99.90
65036;DHT22;51603;49.300;8.880;2023-02-15T06:58:58;0.90;99.90
65036;DHT22;51603;49.300;8.880;2023-02-15T07:01:24;0.90;99.90
65036;DHT22;51603;49.300;8.880;2023-02-15T07:03:50;0.90;99.90
65036;DHT22;51603;49.300;8.880;2023-02-15T07:06:15;0.90;99.90
65036;DHT22;51603;49.300;8.880;2023-02-15T07:08:41;0.90;99.90
65036;DHT22;51603;49.300;8.880;2023-02-15T07:11:07;0.90;99.90
65036;DHT22;51603;49.300;8.880;2023-02-15T07:13:51;0.90;99.90
65036;DHT22;51603;49.300;8.880;2023-02-15T07:16:18;0.90;99.90
65036;DHT22;51603;49.300;8.880;2023-02-15T07:18:44;0.90;99.90
65036;DHT22;51603;49.300;8.880;2023-02-15T07:21:09;0.90;99.90
65036;DHT22;51603;49.300;8.880;2023-02-15T07:23:38;0.90;99.90
65036;DHT22;51603;49.300;8.880;2023-02-15T07:26:05;0.90;99.90
65036;DHT22;51603;49.300;8.880;2023-02-15T07:28:33;0.90;99.90
65036;DHT22;51603;49.300;8.880;2023-02-15T07:30:58;0.80;99.90
65036;DHT22;51603;49.300;8.880;2023-02-15T07:33:25;0.80;99.90
65036;DHT22;51603;49.300;8.880;2023-02-15T07:35:57;0.80;99.90
65036;DHT22;51603;49.300;8.880;2023-02-15T07:38:24;0.80;99.90
65036;DHT22;51603;49.300;8.880;2023-02-15T07:40:50;0.70;99.90
65036;DHT22;51603;49.300;8.880;2023-02-15T07:43:16;0.60;99.90
65036;DHT22;51603;49.300;8.880;2023-02-15T07:45:41;0.50;99.90
65036;DHT22;51603;49.300;8.880;2023-02-15T07:48:07;0.50;99.90
65036;DHT22;51603;49.300;8.880;2023-02-15T07:50:33;0.60;99.90
65036;DHT22;51603;49.300;8.880;2023-02-15T07:53:01;0.60;99.90
65036;DHT22;51603;49.300;8.880;2023-02-15T07:55:27;0.50;99.90
65036;DHT22;51603;49.300;8.880;2023-02-15T07:57:53;0.50;99.90
65036;DHT22;51603;49.300;8.880;2023-02-15T08:00:20;0.50;99.90
65036;DHT22;51603;49.300;8.880;2023-02-15T08:02:51;0.60;99.90
65036;DHT22;51603;49.300;8.880;2023-02-15T08:05:37;0.50;99.90
65036;DHT22;51603;49.300;8.880;2023-02-15T08:08:03;0.60;99.90
65036;DHT22;51603;49.300;8.880;2023-02-15T08:10:29;0.60;99.90
65036;DHT22;51603;49.300;8.880;2023-02-15T08:13:13;0.50;99.90
65036;DHT22;51603;49.300;8.880;2023-02-15T08:15:39;0.50;99.90
65036;DHT22;51603;49.300;8.880;2023-02-15T08:18:04;0.50;99.90
65036;DHT22;51603;49.300;8.880;2023-02-15T08:20:30;0.60;99.90
65036;DHT22;51603;49.300;8.880;2023-02-15T08:22:55;0.60;99.90
65036;DHT22;51603;49.300;8.880;2023-02-15T08:25:21;0.70;99.90
65036;DHT22;51603;49.300;8.880;2023-02-15T08:27:46;0.70;99.90
65036;DHT22;51603;49.300;8.880;2023-02-15T08:30:13;0.70;99.90
65036;DHT22;51603;49.300;8.880;2023-02-15T08:32:39;0.80;99.90
65036;DHT22;51603;49.300;8.880;2023-02-15T08:35:05;0.80;99.90
65036;DHT22;51603;49.300;8.880;2023-02-15T08:37:31;0.80;99.90
65036;DHT22;51603;49.300;8.880;2023-02-15T08:39:56;0.70;99.90
65036;DHT22;51603;49.300;8.880;2023-02-15T08:42:22;0.70;99.90
65036;DHT22;51603;49.300;8.880;2023-02-15T08:44:47;0.70;99.90
65036;DHT22;51603;49.300;8.880;2023-02-15T08:47:15;0.80;99.90
65036;DHT22;51603;49.300;8.880;2023-02-15T08:49:41;0.80;99.90
65036;DHT22;51603;49.300;8.880;2023-02-15T08:52:06;0.80;99.90
65036;DHT22;51603;49.300;8.880;2023-02-15T08:54:32;0.90;99.90
65036;DHT22;51603;49.300;8.880;2023-02-15T08:56:58;0.90;99.90
65036;DHT22;51603;49.300;8.880;2023-02-15T08:59:24;0.90;99.90
65036;DHT22;51603;49.300;8.880;2023-02-15T09:01:52;1.00;99.90
65036;DHT22;51603;49.300;8.880;2023-02-15T09:04:19;0.80;99.90
65036;DHT22;51603;49.300;8.880;2023-02-15T09:06:46;0.70;99.90
65036;DHT22;51603;49.300;8.880;2023-02-15T09:09:12;0.80;99.90
65036;DHT22;51603;49.300;8.880;2023-02-15T09:11:40;0.90;99.90
65036;DHT22;51603;49.300;8.880;2023-02-15T09:14:09;0.90;99.90
65036;DHT22;51603;49.300;8.880;2023-02-15T09:16:37;0.90;99.90
65036;DHT22;51603;49.300;8.880;2023-02-15T09:19:04;0.90;99.90
65036;DHT22;51603;49.300;8.880;2023-02-15T09:21:35;1.00;99.90
65036;DHT22;51603;49.300;8.880;2023-02-15T09:24:04;1.00;99.90
65036;DHT22;51603;49.300;8.880;2023-02-15T09:26:32;1.00;99.90
65036;DHT22;51603;49.300;8.880;2023-02-15T09:28:59;1.10;99.90
65036;DHT22;51603;49.300;8.880;2023-02-15T09:31:40;1.10;99.90
65036;DHT22;51603;49.300;8.880;2023-02-15T09:34:10;1.10;99.90
65036;DHT22;51603;49.300;8.880;2023-02-15T09:36:38;1.10;99.90
65036;DHT22;51603;49.300;8.880;2023-02-15T09:49:56;1.20;99.90
65036;DHT22;51603;49.300;8.880;2023-02-15T10:06:24;1.00;99.90
65036;DHT22;51603;49.300;8.880;2023-02-15T10:09:24;1.20;99.90
65036;DHT22;51603;49.300;8.880;2023-02-15T10:25:59;1.60;99.90
65036;DHT22;51603;49.300;8.880;2023-02-15T10:29:44;1.60;99.90
65036;DHT22;51603;49.300;8.880;2023-02-15T10:31:42;1.70;99.90
65036;DHT22;51603;49.300;8.880;2023-02-15T10:37:25;1.80;99.90
65036;DHT22;51603;49.300;8.880;2023-02-15T10:49:04;1.70;99.90
65036;DHT22;51603;49.300;8.880;2023-02-15T10:51:37;1.80;99.90
65036;DHT22;51603;49.300;8.880;2023-02-15T11:02:20;1.50;99.90
65036;DHT22;51603;49.300;8.880;2023-02-15T11:07:38;1.30;99.90
65036;DHT22;51603;49.300;8.880;2023-02-15T11:10:26;1.40;99.90
65036;DHT22;51603;49.300;8.880;2023-02-15T11:12:54;1.40;99.90
65036;DHT22;51603;49.300;8.880;2023-02-15T11:15:36;1.50;99.90
65036;DHT22;51603;49.300;8.880;2023-02-15T11:18:15;1.50;99.90
65036;DHT22;51603;49.300;8.880;2023-02-15T11:21:23;1.60;99.90
65036;DHT22;51603;49.300;8.880;2023-02-15T11:23:44;1.60;99.90
65036;DHT22;51603;49.300;8.880;2023-02-15T11:26:29;1.60;99.90
65036;DHT22;51603;49.300;8.880;2023-02-15T11:29:24;1.60;99.90
65036;DHT22;51603;49.300;8.880;2023-02-15T11:32:11;1.60;99.90
65036;DHT22;51603;49.300;8.880;2023-02-15T11:34:58;1.70;99.90
65036;DHT22;51603;49.300;8.880;2023-02-15T11:40:31;1.90;99.90
65036;DHT22;51603;49.300;8.880;2023-02-15T11:43:13;2.00;99.90
65036;DHT22;51603;49.300;8.880;2023-02-15T11:45:42;2.00;99.90
65036;DHT22;51603;49.300;8.880;2023-02-15T11:48:10;2.10;99.90
65036;DHT22;51603;49.300;8.880;2023-02-15T11:50:36;2.20;99.90
65036;DHT22;51603;49.300;8.880;2023-02-15T11:53:06;2.30;99.90
65036;DHT22;51603;49.300;8.880;2023-02-15T11:55:34;2.40;99.90
65036;DHT22;51603;49.300;8.880;2023-02-15T12:03:43;2.00;99.90
65036;DHT22;51603;49.300;8.880;2023-02-15T12:09:29;2.00;99.90
65036;DHT22;51603;49.300;8.880;2023-02-15T12:12:26;2.30;99.90
65036;DHT22;51603;49.300;8.880;2023-02-15T12:14:54;2.50;99.90
65036;DHT22;51603;49.300;8.880;2023-02-15T12:17:52;2.60;99.90
65036;DHT22;51603;49.300;8.880;2023-02-15T12:23:08;3.10;99.90
65036;DHT22;51603;49.300;8.880;2023-02-15T12:25:42;3.20;99.90
65036;DHT22;51603;49.300;8.880;2023-02-15T12:30:50;3.30;99.90
65036;DHT22;51603;49.300;8.880;2023-02-15T12:33:50;3.30;99.90
65036;DHT22;51603;49.300;8.880;2023-02-15T12:36:24;3.40;99.90
65036;DHT22;51603;49.300;8.880;2023-02-15T12:41:44;3.60;99.90
65036;DHT22;51603;49.300;8.880;2023-02-15T12:44:18;3.50;99.90
65036;DHT22;51603;49.300;8.880;2023-02-15T12:47:00;3.50;99.90
65036;DHT22;51603;49.300;8.880;2023-02-15T12:49:28;3.60;99.90
65036;DHT22;51603;49.300;8.880;2023-02-15T12:51:56;3.60;99.90
65036;DHT22;51603;49.300;8.880;2023-02-15T12:56:48;3.80;99.90
65036;DHT22;51603;49.300;8.880;2023-02-15T12:59:14;3.80;99.90
65036;DHT22;51603;49.300;8.880;2023-02-15T13:01:41;3.80;99.90
65036;DHT22;51603;49.300;8.880;2023-02-15T13:04:23;3.80;99.90
65036;DHT22;51603;49.300;8.880;2023-02-15T13:06:52;3.90;99.90
65036;DHT22;51603;49.300;8.880;2023-02-15T13:12:18;4.20;99.90
65036;DHT22;51603;49.300;8.880;2023-02-15T13:14:46;4.10;99.90
65036;DHT22;51603;49.300;8.880;2023-02-15T13:17:14;4.20;99.90
65036;DHT22;51603;49.300;8.880;2023-02-15T13:19:50;4.30;99.90
65036;DHT22;51603;49.300;8.880;2023-02-15T13:22:24;4.30;99.90
65036;DHT22;51603;49.300;8.880;2023-02-15T13:24:55;4.60;99.90
65036;DHT22;51603;49.300;8.880;2023-02-15T13:27:26;4.80;99.90
65036;DHT22;51603;49.300;8.880;2023-02-15T13:29:58;5.10;99.90
65036;DHT22;51603;49.300;8.880;2023-02-15T13:32:34;5.50;99.90
65036;DHT22;51603;49.300;8.880;2023-02-15T13:35:03;5.40;99.90
65036;DHT22;51603;49.300;8.880;2023-02-15T13:40:31;5.70;99.90
65036;DHT22;51603;49.300;8.880;2023-02-15T13:46:10;6.00;99.90
65036;DHT22;51603;49.300;8.880;2023-02-15T14:19:10;7.50;99.90
65036;DHT22;51603;49.300;8.880;2023-02-15T14:21:59;7.50;99.90
65036;DHT22;51603;49.300;8.880;2023-02-15T14:24:38;7.50;99.90
65036;DHT22;51603;49.300;8.880;2023-02-15T14:29:50;7.60;99.90
65036;DHT22;51603;49.300;8.880;2023-02-15T14:32:35;7.40;99.90
65036;DHT22;51603;49.300;8.880;2023-02-15T14:35:13;7.10;99.90
65036;DHT22;51603;49.300;8.880;2023-02-15T14:40:42;7.50;99.90
65036;DHT22;51603;49.300;8.880;2023-02-15T14:56:45;7.40;99.90
65036;DHT22;51603;49.300;8.880;2023-02-15T15:01:37;7.70;99.90
65036;DHT22;51603;49.300;8.880;2023-02-15T15:04:06;7.80;99.90
65036;DHT22;51603;49.300;8.880;2023-02-15T15:06:38;8.00;99.90
65036;DHT22;51603;49.300;8.880;2023-02-15T15:09:27;8.10;99.90
65036;DHT22;51603;49.300;8.880;2023-02-15T15:11:54;8.00;99.90
65036;DHT22;51603;49.300;8.880;2023-02-15T15:14:40;7.80;99.90
65036;DHT22;51603;49.300;8.880;2023-02-15T15:17:10;7.70;99.90
65036;DHT22;51603;49.300;8.880;2023-02-15T15:22:24;7.70;99.90
65036;DHT22;51603;49.300;8.880;2023-02-15T15:25:07;7.70;99.90
65036;DHT22;51603;49.300;8.880;2023-02-15T15:27:53;7.80;99.90
65036;DHT22;51603;49.300;8.880;2023-02-15T15:41:16;7.70;99.90
65036;DHT22;51603;49.300;8.880;2023-02-15T15:46:58;7.50;99.90
65036;DHT22;51603;49.300;8.880;2023-02-15T15:49:30;7.50;99.90
65036;DHT22;51603;49.300;8.880;2023-02-15T15:52:00;7.40;99.90
65036;DHT22;51603;49.300;8.880;2023-02-15T15:54:27;7.30;99.90
65036;DHT22;51603;49.300;8.880;2023-02-15T15:56:56;7.30;99.90
65036;DHT22;51603;49.300;8.880;2023-02-15T15:59:27;7.20;99.90
65036;DHT22;51603;49.300;8.880;2023-02-15T16:01:53;7.00;99.90
65036;DHT22;51603;49.300;8.880;2023-02-15T16:04:26;6.70;99.90
65036;DHT22;51603;49.300;8.880;2023-02-15T16:06:52;6.40;99.90
65036;DHT22;51603;49.300;8.880;2023-02-15T16:11:56;6.10;99.90
65036;DHT22;51603;49.300;8.880;2023-02-15T16:14:35;5.90;99.90
65036;DHT22;51603;49.300;8.880;2023-02-15T16:17:04;5.80;99.90
65036;DHT22;51603;49.300;8.880;2023-02-15T16:19:37;5.60;99.90
65036;DHT22;51603;49.300;8.880;2023-02-15T16:22:09;5.50;99.90
65036;DHT22;51603;49.300;8.880;2023-02-15T16:25:17;5.40;99.90
65036;DHT22;51603;49.300;8.880;2023-02-15T16:27:46;5.30;99.90
65036;DHT22;51603;49.300;8.880;2023-02-15T16:32:49;5.00;99.90
65036;DHT22;51603;49.300;8.880;2023-02-15T16:35:19;4.90;99.90
65036;DHT22;51603;49.300;8.880;2023-02-15T16:37:45;4.70;99.90
65036;DHT22;51603;49.300;8.880;2023-02-15T16:42:50;4.40;99.90
65036;DHT22;51603;49.300;8.880;2023-02-15T16:45:19;4.40;99.90
65036;DHT22;51603;49.300;8.880;2023-02-15T16:47:47;4.30;99.90
65036;DHT22;51603;49.300;8.880;2023-02-15T16:50:31;4.30;99.90
65036;DHT22;51603;49.300;8.880;2023-02-15T16:52:57;4.30;99.90
65036;DHT22;51603;49.300;8.880;2023-02-15T16:55:26;4.20;99.90
65036;DHT22;51603;49.300;8.880;2023-02-15T16:57:59;4.20;99.90
65036;DHT22;51603;49.300;8.880;2023-02-15T17:00:28;4.20;99.90
65036;DHT22;51603;49.300;8.880;2023-02-15T17:03:00;4.10;99.90
65036;DHT22;51603;49.300;8.880;2023-02-15T17:05:50;4.00;99.90
65036;DHT22;51603;49.300;8.880;2023-02-15T17:11:16;4.00;99.90
65036;DHT22;51603;49.300;8.880;2023-02-15T17:14:11;3.90;99.90
65036;DHT22;51603;49.300;8.880;2023-02-15T17:16:47;3.70;99.90
65036;DHT22;51603;49.300;8.880;2023-02-15T17:19:27;3.60;99.90
65036;DHT22;51603;49.300;8.880;2023-02-15T17:21:55;3.60;99.90
65036;DHT22;51603;49.300;8.880;2023-02-15T17:24:40;3.40;99.90
65036;DHT22;51603;49.300;8.880;2023-02-15T17:29:45;3.20;99.90
65036;DHT22;51603;49.300;8.880;2023-02-15T17:32:27;3.10;99.90
65036;DHT22;51603;49.300;8.880;2023-02-15T17:42:43;2.90;99.90
65036;DHT22;51603;49.300;8.880;2023-02-15T17:45:08;2.80;99.90
65036;DHT22;51603;49.300;8.880;2023-02-15T17:47:34;2.80;99.90
65036;DHT22;51603;49.300;8.880;2023-02-15T17:50:03;2.70;99.90
65036;DHT22;51603;49.300;8.880;2023-02-15T17:52:29;2.60;99.90
65036;DHT22;51603;49.300;8.880;2023-02-15T17:54:55;2.60;99.90
65036;DHT22;51603;49.300;8.880;2023-02-15T17:57:40;2.50;99.90
65036;DHT22;51603;49.300;8.880;2023-02-15T18:00:06;2.50;99.90
65036;DHT22;51603;49.300;8.880;2023-02-15T18:02:51;2.50;99.90
65036;DHT22;51603;49.300;8.880;2023-02-15T18:05:35;2.40;99.90
65036;DHT22;51603;49.300;8.880;2023-02-15T18:08:24;2.30;99.90
65036;DHT22;51603;49.300;8.880;2023-02-15T18:11:09;2.30;99.90
65036;DHT22;51603;49.300;8.880;2023-02-15T18:13:53;2.20;99.90
65036;DHT22;51603;49.300;8.880;2023-02-15T18:16:24;2.10;99.90
65036;DHT22;51603;49.300;8.880;2023-02-15T18:18:51;2.10;99.90
65036;DHT22;51603;49.300;8.880;2023-02-15T18:21:16;2.00;99.90
65036;DHT22;51603;49.300;8.880;2023-02-15T18:23:42;2.00;99.90
65036;DHT22;51603;49.300;8.880;2023-02-15T18:26:16;2.00;99.90
65036;DHT22;51603;49.300;8.880;2023-02-15T18:28:42;1.90;99.90
65036;DHT22;51603;49.300;8.880;2023-02-15T18:31:09;1.90;99.90
65036;DHT22;51603;49.300;8.880;2023-02-15T18:33:39;1.80;99.90
65036;DHT22;51603;49.300;8.880;2023-02-15T18:36:06;1.80;99.90
65036;DHT22;51603;49.300;8.880;2023-02-15T18:38:32;1.80;99.90
65036;DHT22;51603;49.300;8.880;2023-02-15T18:40:59;1.70;99.90
65036;DHT22;51603;49.300;8.880;2023-02-15T18:43:25;1.70;99.90
65036;DHT22;51603;49.300;8.880;2023-02-15T18:45:50;1.60;99.90
65036;DHT22;51603;49.300;8.880;2023-02-15T18:48:16;1.60;99.90
65036;DHT22;51603;49.300;8.880;2023-02-15T18:50:41;1.60;99.90
65036;DHT22;51603;49.300;8.880;2023-02-15T18:53:14;1.50;99.90
65036;DHT22;51603;49.300;8.880;2023-02-15T18:55:41;1.50;99.90
65036;DHT22;51603;49.300;8.880;2023-02-15T18:58:19;1.40;99.90
65036;DHT22;51603;49.300;8.880;2023-02-15T19:00:45;1.40;99.90
65036;DHT22;51603;49.300;8.880;2023-02-15T19:03:14;1.40;99.90
65036;DHT22;51603;49.300;8.880;2023-02-15T19:05:44;1.40;99.90
65036;DHT22;51603;49.300;8.880;2023-02-15T19:08:21;1.40;99.90
65036;DHT22;51603;49.300;8.880;2023-02-15T19:10:49;1.30;99.90
65036;DHT22;51603;49.300;8.880;2023-02-15T19:13:15;1.30;99.90
65036;DHT22;51603;49.300;8.880;2023-02-15T19:15:42;1.20;99.90
65036;DHT22;51603;49.300;8.880;2023-02-15T19:18:08;1.20;99.90
65036;DHT22;51603;49.300;8.880;2023-02-15T19:20:43;1.20;99.90
65036;DHT22;51603;49.300;8.880;2023-02-15T19:23:20;1.20;99.90
65036;DHT22;51603;49.300;8.880;2023-02-15T19:25:47;1.20;99.90
65036;DHT22;51603;49.300;8.880;2023-02-15T19:28:19;1.10;99.90
65036;DHT22;51603;49.300;8.880;2023-02-15T19:30:46;1.10;99.90
65036;DHT22;51603;49.300;8.880;2023-02-15T19:33:17;1.10;99.90
65036;DHT22;51603;49.300;8.880;2023-02-15T19:35:44;1.10;99.90
65036;DHT22;51603;49.300;8.880;2023-02-15T19:38:17;1.10;99.90